sensor_id;sensor_type;location;lat;lon;timestamp;P1;durP1;ratioP1;P2;durP2;ratioP2
12451;SDS011;72521;48.924;12.204;2024-01-16T00:01:33;2.07;;;1.43;;
12451;SDS011;72521;48.924;12.204;2024-01-16T00:06:39;4.30;;;2.53;;
12451;SDS011;72521;48.924;12.204;2024-01-16T00:11:48;3.23;;;1.80;;
12451;SDS011;72521;48.924;12.204;2024-01-16T00:16:53;7.27;;;2.70;;
12451;SDS011;72521;48.924;12.204;2024-01-16T00:21:59;3.93;;;2.13;;
12451;SDS011;72521;48.924;12.204;2024-01-16T00:27:04;3.03;;;1.83;;
12451;SDS011;72521;48.924;12.204;2024-01-16T00:32:11;3.07;;;2.03;;
12451;SDS011;72521;48.924;12.204;2024-01-16T00:37:19;3.13;;;2.40;;
12451;SDS011;72521;48.924;12.204;2024-01-16T00:42:23;1.07;;;0.97;;
12451;SDS011;72521;48.924;12.204;2024-01-16T00:47:27;3.17;;;1.50;;
12451;SDS011;72521;48.924;12.204;2024-01-16T00:52:33;1.77;;;1.57;;
12451;SDS011;72521;48.924;12.204;2024-01-16T00:57:37;2.40;;;1.70;;
12451;SDS011;72521;48.924;12.204;2024-01-16T01:02:41;1.30;;;1.17;;
12451;SDS011;72521;48.924;12.204;2024-01-16T01:07:47;2.53;;;1.73;;
12451;SDS011;72521;48.924;12.204;2024-01-16T01:12:51;3.73;;;1.07;;
12451;SDS011;72521;48.924;12.204;2024-01-16T01:17:56;4.63;;;2.50;;
12451;SDS011;72521;48.924;12.204;2024-01-16T01:23:01;1.93;;;1.20;;
12451;SDS011;72521;48.924;12.204;2024-01-16T01:28:06;2.90;;;1.53;;
12451;SDS011;72521;48.924;12.204;2024-01-16T01:33:10;2.50;;;1.43;;
12451;SDS011;72521;48.924;12.204;2024-01-16T01:38:16;3.80;;;2.80;;
12451;SDS011;72521;48.924;12.204;2024-01-16T01:43:21;2.30;;;1.67;;
12451;SDS011;72521;48.924;12.204;2024-01-16T01:48:26;4.47;;;2.83;;
12451;SDS011;72521;48.924;12.204;2024-01-16T01:53:35;3.07;;;1.73;;
12451;SDS011;72521;48.924;12.204;2024-01-16T01:58:40;3.63;;;1.93;;
12451;SDS011;72521;48.924;12.204;2024-01-16T02:03:46;3.90;;;1.70;;
12451;SDS011;72521;48.924;12.204;2024-01-16T02:08:53;3.60;;;1.80;;
12451;SDS011;72521;48.924;12.204;2024-01-16T02:13:58;2.00;;;1.40;;
12451;SDS011;72521;48.924;12.204;2024-01-16T02:19:02;1.60;;;1.50;;
12451;SDS011;72521;48.924;12.204;2024-01-16T02:24:09;2.70;;;1.57;;
12451;SDS011;72521;48.924;12.204;2024-01-16T02:29:14;6.70;;;1.67;;
12451;SDS011;72521;48.924;12.204;2024-01-16T02:34:18;4.53;;;1.60;;
12451;SDS011;72521;48.924;12.204;2024-01-16T02:39:24;3.47;;;2.03;;
12451;SDS011;72521;48.924;12.204;2024-01-16T02:44:28;1.77;;;1.43;;
12451;SDS011;72521;48.924;12.204;2024-01-16T02:49:32;2.87;;;1.73;;
12451;SDS011;72521;48.924;12.204;2024-01-16T02:54:40;2.37;;;1.83;;
12451;SDS011;72521;48.924;12.204;2024-01-16T02:59:44;1.03;;;0.97;;
12451;SDS011;72521;48.924;12.204;2024-01-16T03:04:48;10.10;;;3.23;;
12451;SDS011;72521;48.924;12.204;2024-01-16T03:09:54;4.43;;;2.90;;
12451;SDS011;72521;48.924;12.204;2024-01-16T03:14:59;4.63;;;3.10;;
12451;SDS011;72521;48.924;12.204;2024-01-16T03:20:03;7.03;;;3.60;;
12451;SDS011;72521;48.924;12.204;2024-01-16T03:25:10;4.33;;;3.20;;
12451;SDS011;72521;48.924;12.204;2024-01-16T03:30:15;3.80;;;2.50;;
12451;SDS011;72521;48.924;12.204;2024-01-16T03:35:19;2.63;;;1.87;;
12451;SDS011;72521;48.924;12.204;2024-01-16T03:40:25;2.70;;;2.17;;
12451;SDS011;72521;48.924;12.204;2024-01-16T03:45:29;4.63;;;2.50;;
12451;SDS011;72521;48.924;12.204;2024-01-16T03:50:33;5.87;;;1.53;;
12451;SDS011;72521;48.924;12.204;2024-01-16T03:55:39;2.57;;;1.47;;
12451;SDS011;72521;48.924;12.204;2024-01-16T04:00:43;3.77;;;2.33;;
12451;SDS011;72521;48.924;12.204;2024-01-16T04:05:48;2.87;;;1.23;;
12451;SDS011;72521;48.924;12.204;2024-01-16T04:10:54;2.53;;;2.10;;
12451;SDS011;72521;48.924;12.204;2024-01-16T04:15:58;4.17;;;2.47;;
12451;SDS011;72521;48.924;12.204;2024-01-16T04:21:02;2.37;;;1.67;;
12451;SDS011;72521;48.924;12.204;2024-01-16T04:26:08;5.57;;;2.73;;
12451;SDS011;72521;48.924;12.204;2024-01-16T04:31:12;5.50;;;2.60;;
12451;SDS011;72521;48.924;12.204;2024-01-16T04:36:19;3.13;;;1.87;;
12451;SDS011;72521;48.924;12.204;2024-01-16T04:41:24;3.83;;;3.20;;
12451;SDS011;72521;48.924;12.204;2024-01-16T04:46:28;4.77;;;2.17;;
12451;SDS011;72521;48.924;12.204;2024-01-16T04:51:33;3.30;;;1.80;;
12451;SDS011;72521;48.924;12.204;2024-01-16T04:56:38;2.50;;;1.50;;
12451;SDS011;72521;48.924;12.204;2024-01-16T05:01:43;5.83;;;3.07;;
12451;SDS011;72521;48.924;12.204;2024-01-16T05:06:50;6.43;;;2.60;;
12451;SDS011;72521;48.924;12.204;2024-01-16T05:11:56;5.17;;;3.40;;
12451;SDS011;72521;48.924;12.204;2024-01-16T05:17:00;2.83;;;1.83;;
12451;SDS011;72521;48.924;12.204;2024-01-16T05:22:04;6.23;;;3.13;;
12451;SDS011;72521;48.924;12.204;2024-01-16T05:27:11;3.87;;;1.87;;
12451;SDS011;72521;48.924;12.204;2024-01-16T05:32:16;1.47;;;1.27;;
12451;SDS011;72521;48.924;12.204;2024-01-16T05:37:21;2.33;;;1.70;;
12451;SDS011;72521;48.924;12.204;2024-01-16T05:42:27;5.80;;;2.93;;
12451;SDS011;72521;48.924;12.204;2024-01-16T05:47:32;3.70;;;2.70;;
12451;SDS011;72521;48.924;12.204;2024-01-16T05:52:36;5.20;;;2.50;;
12451;SDS011;72521;48.924;12.204;2024-01-16T05:57:46;4.63;;;2.50;;
12451;SDS011;72521;48.924;12.204;2024-01-16T06:02:50;3.37;;;2.20;;
12451;SDS011;72521;48.924;12.204;2024-01-16T06:07:54;3.83;;;1.60;;
12451;SDS011;72521;48.924;12.204;2024-01-16T06:13:00;3.43;;;1.70;;
12451;SDS011;72521;48.924;12.204;2024-01-16T06:18:04;4.00;;;1.73;;
12451;SDS011;72521;48.924;12.204;2024-01-16T06:23:08;2.90;;;1.87;;
12451;SDS011;72521;48.924;12.204;2024-01-16T06:28:14;1.70;;;1.53;;
12451;SDS011;72521;48.924;12.204;2024-01-16T06:33:18;1.97;;;1.30;;
12451;SDS011;72521;48.924;12.204;2024-01-16T06:38:22;4.03;;;1.57;;
12451;SDS011;72521;48.924;12.204;2024-01-16T06:43:28;1.53;;;1.33;;
12451;SDS011;72521;48.924;12.204;2024-01-16T06:48:33;3.97;;;2.20;;
12451;SDS011;72521;48.924;12.204;2024-01-16T06:53:38;2.53;;;1.67;;
12451;SDS011;72521;48.924;12.204;2024-01-16T06:58:44;4.93;;;2.00;;
12451;SDS011;72521;48.924;12.204;2024-01-16T07:03:48;5.60;;;2.33;;
12451;SDS011;72521;48.924;12.204;2024-01-16T07:08:54;1.20;;;1.10;;
12451;SDS011;72521;48.924;12.204;2024-01-16T07:13:59;2.27;;;1.70;;
12451;SDS011;72521;48.924;12.204;2024-01-16T07:19:05;4.37;;;3.03;;
12451;SDS011;72521;48.924;12.204;2024-01-16T07:24:09;1.43;;;1.00;;
12451;SDS011;72521;48.924;12.204;2024-01-16T07:29:15;1.03;;;0.90;;
12451;SDS011;72521;48.924;12.204;2024-01-16T07:34:20;5.13;;;1.60;;
12451;SDS011;72521;48.924;12.204;2024-01-16T07:39:24;2.20;;;1.73;;
12451;SDS011;72521;48.924;12.204;2024-01-16T07:44:30;2.40;;;1.90;;
12451;SDS011;72521;48.924;12.204;2024-01-16T07:49:34;1.43;;;0.90;;
12451;SDS011;72521;48.924;12.204;2024-01-16T07:54:38;3.67;;;2.20;;
12451;SDS011;72521;48.924;12.204;2024-01-16T07:59:44;2.53;;;1.23;;
12451;SDS011;72521;48.924;12.204;2024-01-16T08:04:48;2.00;;;1.23;;
12451;SDS011;72521;48.924;12.204;2024-01-16T08:09:52;4.50;;;1.57;;
12451;SDS011;72521;48.924;12.204;2024-01-16T08:14:57;2.53;;;1.70;;
12451;SDS011;72521;48.924;12.204;2024-01-16T08:20:02;3.57;;;1.50;;
12451;SDS011;72521;48.924;12.204;2024-01-16T08:25:06;3.37;;;2.20;;
12451;SDS011;72521;48.924;12.204;2024-01-16T08:30:12;0.40;;;0.40;;
12451;SDS011;72521;48.924;12.204;2024-01-16T08:35:17;4.93;;;2.23;;
12451;SDS011;72521;48.924;12.204;2024-01-16T08:40:21;1.97;;;1.37;;
12451;SDS011;72521;48.924;12.204;2024-01-16T08:45:27;4.07;;;2.13;;
12451;SDS011;72521;48.924;12.204;2024-01-16T08:50:31;1.43;;;0.90;;
12451;SDS011;72521;48.924;12.204;2024-01-16T08:55:35;1.60;;;0.97;;
12451;SDS011;72521;48.924;12.204;2024-01-16T09:00:40;5.77;;;2.67;;
12451;SDS011;72521;48.924;12.204;2024-01-16T09:05:44;4.20;;;2.17;;
12451;SDS011;72521;48.924;12.204;2024-01-16T09:10:49;1.00;;;0.47;;
12451;SDS011;72521;48.924;12.204;2024-01-16T09:15:54;3.87;;;2.17;;
12451;SDS011;72521;48.924;12.204;2024-01-16T09:20:59;7.37;;;3.60;;
12451;SDS011;72521;48.924;12.204;2024-01-16T09:26:03;1.23;;;1.00;;
12451;SDS011;72521;48.924;12.204;2024-01-16T09:31:09;4.47;;;0.87;;
12451;SDS011;72521;48.924;12.204;2024-01-16T09:36:13;1.20;;;0.73;;
12451;SDS011;72521;48.924;12.204;2024-01-16T09:41:17;3.67;;;2.00;;
12451;SDS011;72521;48.924;12.204;2024-01-16T09:46:23;3.60;;;1.80;;
12451;SDS011;72521;48.924;12.204;2024-01-16T09:51:28;0.70;;;0.70;;
12451;SDS011;72521;48.924;12.204;2024-01-16T09:56:32;1.47;;;1.07;;
12451;SDS011;72521;48.924;12.204;2024-01-16T10:01:39;2.97;;;1.83;;
12451;SDS011;72521;48.924;12.204;2024-01-16T10:06:44;4.23;;;2.13;;
12451;SDS011;72521;48.924;12.204;2024-01-16T10:11:50;1.80;;;1.43;;
12451;SDS011;72521;48.924;12.204;2024-01-16T10:16:56;3.37;;;1.23;;
12451;SDS011;72521;48.924;12.204;2024-01-16T10:22:04;3.50;;;2.07;;
12451;SDS011;72521;48.924;12.204;2024-01-16T10:27:09;0.97;;;0.60;;
12451;SDS011;72521;48.924;12.204;2024-01-16T10:32:14;2.50;;;1.47;;
12451;SDS011;72521;48.924;12.204;2024-01-16T10:37:40;4.20;;;1.57;;
12451;SDS011;72521;48.924;12.204;2024-01-16T10:42:45;5.27;;;2.30;;
12451;SDS011;72521;48.924;12.204;2024-01-16T10:48:04;1.83;;;1.47;;
12451;SDS011;72521;48.924;12.204;2024-01-16T10:53:10;2.10;;;1.33;;
12451;SDS011;72521;48.924;12.204;2024-01-16T10:58:17;3.93;;;1.17;;
12451;SDS011;72521;48.924;12.204;2024-01-16T11:03:27;1.90;;;1.70;;
12451;SDS011;72521;48.924;12.204;2024-01-16T11:08:38;5.10;;;2.40;;
12451;SDS011;72521;48.924;12.204;2024-01-16T11:13:43;4.27;;;2.60;;
12451;SDS011;72521;48.924;12.204;2024-01-16T11:18:50;4.20;;;1.97;;
12451;SDS011;72521;48.924;12.204;2024-01-16T11:23:55;5.70;;;2.30;;
12451;SDS011;72521;48.924;12.204;2024-01-16T11:28:59;3.23;;;1.50;;
12451;SDS011;72521;48.924;12.204;2024-01-16T11:50:54;3.10;;;2.03;;
12451;SDS011;72521;48.924;12.204;2024-01-16T11:56:09;2.67;;;2.07;;
12451;SDS011;72521;48.924;12.204;2024-01-16T12:01:44;3.30;;;2.10;;
12451;SDS011;72521;48.924;12.204;2024-01-16T12:06:58;4.87;;;1.57;;
12451;SDS011;72521;48.924;12.204;2024-01-16T12:12:03;1.40;;;1.23;;
12451;SDS011;72521;48.924;12.204;2024-01-16T12:17:08;4.30;;;2.00;;
12451;SDS011;72521;48.924;12.204;2024-01-16T12:22:15;3.50;;;2.30;;
12451;SDS011;72521;48.924;12.204;2024-01-16T12:27:20;3.33;;;2.50;;
12451;SDS011;72521;48.924;12.204;2024-01-16T12:32:24;4.70;;;2.50;;
12451;SDS011;72521;48.924;12.204;2024-01-16T12:37:31;4.82;;;3.15;;
12451;SDS011;72521;48.924;12.204;2024-01-16T12:42:35;5.60;;;3.13;;
12451;SDS011;72521;48.924;12.204;2024-01-16T12:47:39;3.53;;;2.15;;
12451;SDS011;72521;48.924;12.204;2024-01-16T12:52:45;4.20;;;2.72;;
12451;SDS011;72521;48.924;12.204;2024-01-16T12:57:49;5.15;;;2.88;;
12451;SDS011;72521;48.924;12.204;2024-01-16T13:03:16;5.80;;;3.20;;
12451;SDS011;72521;48.924;12.204;2024-01-16T13:08:24;5.05;;;2.88;;
12451;SDS011;72521;48.924;12.204;2024-01-16T13:13:28;5.85;;;2.85;;
12451;SDS011;72521;48.924;12.204;2024-01-16T13:18:32;4.15;;;2.40;;
12451;SDS011;72521;48.924;12.204;2024-01-16T13:23:38;4.50;;;2.50;;
12451;SDS011;72521;48.924;12.204;2024-01-16T13:28:42;5.80;;;2.50;;
12451;SDS011;72521;48.924;12.204;2024-01-16T13:33:49;3.88;;;2.22;;
12451;SDS011;72521;48.924;12.204;2024-01-16T13:38:55;4.47;;;2.58;;
12451;SDS011;72521;48.924;12.204;2024-01-16T13:43:59;3.40;;;1.87;;
12451;SDS011;72521;48.924;12.204;2024-01-16T13:49:04;3.60;;;2.20;;
12451;SDS011;72521;48.924;12.204;2024-01-16T13:54:10;2.90;;;2.00;;
12451;SDS011;72521;48.924;12.204;2024-01-16T13:59:15;4.50;;;2.87;;
12451;SDS011;72521;48.924;12.204;2024-01-16T14:04:19;7.60;;;2.57;;
12451;SDS011;72521;48.924;12.204;2024-01-16T14:09:25;7.00;;;3.80;;
12451;SDS011;72521;48.924;12.204;2024-01-16T14:14:29;7.60;;;3.67;;
12451;SDS011;72521;48.924;12.204;2024-01-16T14:19:34;9.73;;;5.80;;
12451;SDS011;72521;48.924;12.204;2024-01-16T14:24:40;13.50;;;6.73;;
12451;SDS011;72521;48.924;12.204;2024-01-16T14:29:44;13.17;;;6.90;;
12451;SDS011;72521;48.924;12.204;2024-01-16T14:34:48;6.80;;;4.63;;
12451;SDS011;72521;48.924;12.204;2024-01-16T14:39:53;10.03;;;4.77;;
12451;SDS011;72521;48.924;12.204;2024-01-16T14:44:58;10.27;;;6.57;;
12451;SDS011;72521;48.924;12.204;2024-01-16T14:50:03;8.60;;;4.97;;
12451;SDS011;72521;48.924;12.204;2024-01-16T14:55:09;4.97;;;3.73;;
12451;SDS011;72521;48.924;12.204;2024-01-16T15:00:14;9.90;;;4.53;;
12451;SDS011;72521;48.924;12.204;2024-01-16T15:05:21;11.40;;;4.17;;
12451;SDS011;72521;48.924;12.204;2024-01-16T15:10:27;9.33;;;4.33;;
12451;SDS011;72521;48.924;12.204;2024-01-16T15:15:31;12.03;;;6.10;;
12451;SDS011;72521;48.924;12.204;2024-01-16T15:20:35;13.10;;;5.63;;
12451;SDS011;72521;48.924;12.204;2024-01-16T15:25:40;12.90;;;6.73;;
12451;SDS011;72521;48.924;12.204;2024-01-16T15:30:44;10.10;;;4.83;;
12451;SDS011;72521;48.924;12.204;2024-01-16T15:35:49;9.90;;;4.70;;
12451;SDS011;72521;48.924;12.204;2024-01-16T15:40:54;14.83;;;3.80;;
12451;SDS011;72521;48.924;12.204;2024-01-16T15:45:58;8.40;;;5.27;;
12451;SDS011;72521;48.924;12.204;2024-01-16T15:51:03;7.10;;;4.27;;
12451;SDS011;72521;48.924;12.204;2024-01-16T15:56:13;11.67;;;4.83;;
12451;SDS011;72521;48.924;12.204;2024-01-16T16:01:17;8.50;;;4.43;;
12451;SDS011;72521;48.924;12.204;2024-01-16T16:06:21;8.83;;;4.83;;
12451;SDS011;72521;48.924;12.204;2024-01-16T16:11:27;10.63;;;5.03;;
12451;SDS011;72521;48.924;12.204;2024-01-16T16:16:31;9.37;;;4.47;;
12451;SDS011;72521;48.924;12.204;2024-01-16T16:21:36;6.03;;;3.60;;
12451;SDS011;72521;48.924;12.204;2024-01-16T16:26:41;8.97;;;4.60;;
12451;SDS011;72521;48.924;12.204;2024-01-16T16:31:46;6.87;;;3.87;;
12451;SDS011;72521;48.924;12.204;2024-01-16T16:36:50;6.80;;;3.87;;
12451;SDS011;72521;48.924;12.204;2024-01-16T16:41:56;7.43;;;4.80;;
12451;SDS011;72521;48.924;12.204;2024-01-16T16:47:00;9.77;;;6.77;;
12451;SDS011;72521;48.924;12.204;2024-01-16T16:52:04;17.23;;;11.80;;
12451;SDS011;72521;48.924;12.204;2024-01-16T16:57:10;13.10;;;7.33;;
12451;SDS011;72521;48.924;12.204;2024-01-16T17:02:14;8.60;;;5.03;;
12451;SDS011;72521;48.924;12.204;2024-01-16T17:07:18;10.57;;;7.33;;
12451;SDS011;72521;48.924;12.204;2024-01-16T17:12:26;9.30;;;5.40;;
12451;SDS011;72521;48.924;12.204;2024-01-16T17:17:30;10.07;;;6.43;;
12451;SDS011;72521;48.924;12.204;2024-01-16T17:22:37;10.83;;;5.80;;
12451;SDS011;72521;48.924;12.204;2024-01-16T17:27:42;16.27;;;8.33;;
12451;SDS011;72521;48.924;12.204;2024-01-16T17:32:51;16.13;;;8.13;;
12451;SDS011;72521;48.924;12.204;2024-01-16T17:37:56;13.20;;;7.93;;
12451;SDS011;72521;48.924;12.204;2024-01-16T17:43:02;17.70;;;10.13;;
12451;SDS011;72521;48.924;12.204;2024-01-16T17:48:06;13.13;;;6.70;;
12451;SDS011;72521;48.924;12.204;2024-01-16T17:53:11;11.70;;;6.97;;
12451;SDS011;72521;48.924;12.204;2024-01-16T17:58:17;15.87;;;9.10;;
12451;SDS011;72521;48.924;12.204;2024-01-16T18:03:23;12.97;;;7.57;;
12451;SDS011;72521;48.924;12.204;2024-01-16T18:08:44;11.80;;;6.80;;
12451;SDS011;72521;48.924;12.204;2024-01-16T18:13:52;10.73;;;6.07;;
12451;SDS011;72521;48.924;12.204;2024-01-16T18:18:56;13.43;;;7.43;;
12451;SDS011;72521;48.924;12.204;2024-01-16T18:24:01;15.13;;;7.57;;
12451;SDS011;72521;48.924;12.204;2024-01-16T18:29:08;10.20;;;6.00;;
12451;SDS011;72521;48.924;12.204;2024-01-16T18:34:12;11.13;;;6.07;;
12451;SDS011;72521;48.924;12.204;2024-01-16T18:39:22;12.63;;;6.90;;
12451;SDS011;72521;48.924;12.204;2024-01-16T18:44:28;10.47;;;5.97;;
12451;SDS011;72521;48.924;12.204;2024-01-16T18:49:33;13.70;;;7.67;;
12451;SDS011;72521;48.924;12.204;2024-01-16T18:54:37;12.47;;;7.80;;
12451;SDS011;72521;48.924;12.204;2024-01-16T18:59:43;15.53;;;9.83;;
12451;SDS011;72521;48.924;12.204;2024-01-16T19:04:48;15.10;;;9.17;;
12451;SDS011;72521;48.924;12.204;2024-01-16T19:09:52;16.97;;;11.30;;
12451;SDS011;72521;48.924;12.204;2024-01-16T19:14:58;16.97;;;8.63;;
12451;SDS011;72521;48.924;12.204;2024-01-16T19:20:03;15.27;;;9.67;;
12451;SDS011;72521;48.924;12.204;2024-01-16T19:25:11;11.80;;;7.30;;
12451;SDS011;72521;48.924;12.204;2024-01-16T19:30:19;12.17;;;7.20;;
12451;SDS011;72521;48.924;12.204;2024-01-16T19:35:24;10.93;;;5.43;;
12451;SDS011;72521;48.924;12.204;2024-01-16T19:40:28;10.73;;;7.00;;
12451;SDS011;72521;48.924;12.204;2024-01-16T19:45:34;10.83;;;8.23;;
12451;SDS011;72521;48.924;12.204;2024-01-16T19:50:38;13.20;;;7.67;;
12451;SDS011;72521;48.924;12.204;2024-01-16T19:55:44;14.80;;;7.60;;
12451;SDS011;72521;48.924;12.204;2024-01-16T20:00:49;11.20;;;6.00;;
12451;SDS011;72521;48.924;12.204;2024-01-16T20:05:54;12.43;;;7.23;;
12451;SDS011;72521;48.924;12.204;2024-01-16T20:10:59;14.40;;;6.90;;
12451;SDS011;72521;48.924;12.204;2024-01-16T20:16:08;12.00;;;7.47;;
12451;SDS011;72521;48.924;12.204;2024-01-16T20:21:14;12.40;;;7.57;;
12451;SDS011;72521;48.924;12.204;2024-01-16T20:26:20;10.17;;;6.40;;
12451;SDS011;72521;48.924;12.204;2024-01-16T20:31:27;15.60;;;8.07;;
12451;SDS011;72521;48.924;12.204;2024-01-16T20:36:32;11.00;;;6.30;;
12451;SDS011;72521;48.924;12.204;2024-01-16T20:41:36;13.27;;;6.80;;
12451;SDS011;72521;48.924;12.204;2024-01-16T20:46:41;12.93;;;7.07;;
12451;SDS011;72521;48.924;12.204;2024-01-16T20:51:46;6.80;;;4.23;;
12451;SDS011;72521;48.924;12.204;2024-01-16T20:56:51;11.23;;;5.07;;
12451;SDS011;72521;48.924;12.204;2024-01-16T21:01:57;14.13;;;6.73;;
12451;SDS011;72521;48.924;12.204;2024-01-16T21:07:02;10.33;;;5.10;;
12451;SDS011;72521;48.924;12.204;2024-01-16T21:12:08;16.07;;;7.43;;
12451;SDS011;72521;48.924;12.204;2024-01-16T21:17:16;11.53;;;7.03;;
12451;SDS011;72521;48.924;12.204;2024-01-16T21:22:24;9.67;;;6.17;;
12451;SDS011;72521;48.924;12.204;2024-01-16T21:27:37;11.03;;;5.63;;
12451;SDS011;72521;48.924;12.204;2024-01-16T21:32:43;9.90;;;5.60;;
12451;SDS011;72521;48.924;12.204;2024-01-16T21:37:47;11.13;;;5.70;;
12451;SDS011;72521;48.924;12.204;2024-01-16T21:42:52;14.77;;;7.50;;
12451;SDS011;72521;48.924;12.204;2024-01-16T21:47:57;15.57;;;9.03;;
12451;SDS011;72521;48.924;12.204;2024-01-16T21:53:02;24.17;;;11.07;;
12451;SDS011;72521;48.924;12.204;2024-01-16T21:58:06;17.37;;;9.47;;
12451;SDS011;72521;48.924;12.204;2024-01-16T22:03:12;12.10;;;7.53;;
12451;SDS011;72521;48.924;12.204;2024-01-16T22:08:16;13.63;;;7.87;;
12451;SDS011;72521;48.924;12.204;2024-01-16T22:13:20;15.03;;;8.13;;
12451;SDS011;72521;48.924;12.204;2024-01-16T22:18:26;14.43;;;6.93;;
12451;SDS011;72521;48.924;12.204;2024-01-16T22:23:31;16.33;;;7.87;;
12451;SDS011;72521;48.924;12.204;2024-01-16T22:28:35;12.20;;;6.53;;
12451;SDS011;72521;48.924;12.204;2024-01-16T22:33:43;15.90;;;8.27;;
12451;SDS011;72521;48.924;12.204;2024-01-16T22:38:47;14.80;;;8.23;;
12451;SDS011;72521;48.924;12.204;2024-01-16T22:43:51;16.03;;;7.53;;
12451;SDS011;72521;48.924;12.204;2024-01-16T22:48:58;15.10;;;6.77;;
12451;SDS011;72521;48.924;12.204;2024-01-16T22:54:02;12.73;;;7.17;;
12451;SDS011;72521;48.924;12.204;2024-01-16T22:59:07;14.60;;;7.17;;
12451;SDS011;72521;48.924;12.204;2024-01-16T23:04:13;12.40;;;7.17;;
12451;SDS011;72521;48.924;12.204;2024-01-16T23:09:17;12.70;;;7.43;;
12451;SDS011;72521;48.924;12.204;2024-01-16T23:14:21;14.17;;;7.20;;
12451;SDS011;72521;48.924;12.204;2024-01-16T23:19:27;17.33;;;7.13;;
12451;SDS011;72521;48.924;12.204;2024-01-16T23:24:31;13.73;;;7.37;;
12451;SDS011;72521;48.924;12.204;2024-01-16T23:29:35;11.40;;;6.83;;
12451;SDS011;72521;48.924;12.204;2024-01-16T23:34:41;12.27;;;6.83;;
12451;SDS011;72521;48.924;12.204;2024-01-16T23:39:45;16.73;;;8.30;;
12451;SDS011;72521;48.924;12.204;2024-01-16T23:44:50;13.10;;;6.60;;
12451;SDS011;72521;48.924;12.204;2024-01-16T23:49:56;13.00;;;7.80;;
12451;SDS011;72521;48.924;12.204;2024-01-16T23:55:01;15.27;;;8.07;;
